Naoro Airport

METAR AYPY TAF AYPY
25 °C
°C
-
°C
18m
Âge
00:17:49
LT
23:17
UTC
0 ft

1.000

2.000

3.000

4.000

5.000

FEW 1.000
BKN 1.500
OVC 4.000
UNKN
<?= Yii::t('app', 'Wind direction') ?> <?= Yii::t('app', 'of'); ?>
360°
18:39
Coucher de soleil
94%
Humidité
Cisaillement du vent
Fermé/neige
Portée visuelle RWY
Condition RWY
Visibilité vert.
Visibilité min.
CAVOK
Tendance
Correction
Rapport spécial
1009 hPa
QNH
METAR AYPY 032300Z 36010KT 5000M SHRA FEW010 BKN015 OVC040 25/24 Q1009=
Douches pluie
0 kt
0 kt
09:00
VFR
15 kt
10:00
VFR
15 kt
11:00
VFR
15 kt
12:00
VFR
15 kt
13:00
VFR
8 kt
14:00
VFR
8 kt
15:00
MVFR
8 kt
Vue
1.500 ft
Base cloud
10 kt
Vent
metar-taf.com/NOO

Metar-Taf.com

Décodeur visuel

Nous et des tiers suivons ton comportement Internet sur notre site Web à l'aide de cookies. Si tu continues, nous supposons que tu es d'accord avec notre Politique en matière de cookies.